Springtown, Arkansas
Current Conditions -  °F | °C
As of 1:15 PM on Tuesday 21 Oct 2014 (Local Time) from KSLG Reporting Station
Clear Clear  
Wind Chill: 73°   Ceiling: Unl
Heat Index: 73°   Visibility: 10mi
Dew Point: 52°   Wind: 5mph
Humidity: 47%   Direction: 140°SE
Pressure: 30.12"   Gusts: NA
Location:  36.2693°N, 94.4636°W
Report Text: KSLG 211815Z AUTO 14004KT 10SM CLR 23/11 A3012 RMK AO1
Loading
Personal Weather Stations






























Interactive Weather Map
Tropical Storm Tracking
New forecast layout! Learn more

10-Day Weather Forecast

Advertisements
Track Severe Weather on mobile